Time;durP1;ratioP1;P1;durP2;ratioP2;P2;SDS_P1;SDS_P2;PMS_P1;PMS_P2;Temp;Humidity;BMP_temperature;BMP_pressure;BME280_temperature;BME280_humidity;BME280_pressure;Samples;Min_cycle;Max_cycle;Signal;HPM_P1;HPM_P2
2023/05/04 00:01:59;;;;;;;;;;;;;;;13.94;39.78;101620.97;4928526;28;98145;-75
2023/05/04 00:04:25;;;;;;;;;;;;;;;13.92;39.59;101615.00;4943883;28;98068;-75
2023/05/04 00:06:52;;;;;;;;;;;;;;;13.95;39.73;101611.78;4925706;28;98246;-76
2023/05/04 00:09:23;;;;;;;;;;;;;;;14.00;39.69;101609.09;4960745;28;98277;-76
2023/05/04 00:11:51;;;;;;;;;;;;;;;14.05;39.75;101605.56;4920511;28;98029;-76
2023/05/04 00:14:21;;;;;;;;;;;;;;;14.09;39.85;101608.59;4938840;28;98387;-75
2023/05/04 00:16:50;;;;;;;;;;;;;;;14.11;39.83;101606.41;4923861;28;97903;-75
2023/05/04 00:19:18;;;;;;;;;;;;;;;14.12;39.72;101600.75;4936808;28;100558;-75
2023/05/04 00:21:44;;;;;;;;;;;;;;;14.12;39.61;101603.44;4953481;28;98270;-76
2023/05/04 00:24:15;;;;;;;;;;;;;;;14.12;39.94;101602.63;4938033;28;98151;-75
2023/05/04 00:26:44;;;;;;;;;;;;;;;14.12;40.09;101598.03;4941052;28;97963;-76
2023/05/04 00:29:12;;;;;;;;;;;;;;;14.11;39.73;101595.56;4951284;28;99771;-76
2023/05/04 00:31:39;;;;;;;;;;;;;;;14.11;39.76;101600.97;4952437;28;98681;-76
2023/05/04 00:34:06;;;;;;;;;;;;;;;14.09;39.88;101600.44;4940979;28;98183;-76
2023/05/04 00:36:34;;;;;;;;;;;;;;;14.07;40.12;101599.88;4924936;28;98094;-75
2023/05/04 00:39:02;;;;;;;;;;;;;;;14.06;40.10;101600.97;4930988;28;98240;-76
2023/05/04 00:41:30;;;;;;;;;;;;;;;14.02;40.08;101592.53;4952495;28;98240;-75
2023/05/04 00:44:03;;;;;;;;;;;;;;;13.99;39.83;101593.91;4939569;28;99192;-75
2023/05/04 00:46:31;;;;;;;;;;;;;;;13.98;40.18;101599.56;4926385;28;97977;-75
2023/05/04 00:48:59;;;;;;;;;;;;;;;13.94;39.97;101595.75;4948894;28;99648;-75
2023/05/04 00:51:28;;;;;;;;;;;;;;;13.91;39.84;101605.25;4935979;28;98235;-75
2023/05/04 00:53:56;;;;;;;;;;;;;;;13.88;40.03;101604.94;4950359;28;98432;-75
2023/05/04 00:56:23;;;;;;;;;;;;;;;13.85;39.79;101595.44;4953731;28;98261;-75
2023/05/04 00:58:53;;;;;;;;;;;;;;;13.82;40.12;101587.81;4917872;28;98117;-75
2023/05/04 01:01:25;;;;;;;;;;;;;;;13.79;39.88;101598.38;4940296;28;100471;-75
2023/05/04 01:03:53;;;;;;;;;;;;;;;13.76;40.07;101597.00;4915952;28;98085;-76
2023/05/04 01:06:38;;;;;;;;;;;;;;;13.72;40.17;101593.19;4934414;28;98268;-76
2023/05/04 01:09:15;;;;;;;;;;;;;;;13.68;40.14;101590.19;4953866;28;98372;-75
2023/05/04 01:11:51;;;;;;;;;;;;;;;13.65;39.98;101590.69;4938839;28;98540;-75
2023/05/04 01:14:18;;;;;;;;;;;;;;;13.61;40.07;101591.50;4936603;28;98197;-75
2023/05/04 01:16:46;;;;;;;;;;;;;;;13.58;39.95;101584.69;4918523;28;97922;-76
2023/05/04 01:19:13;;;;;;;;;;;;;;;13.55;40.06;101579.78;4922960;28;98053;-76
2023/05/04 01:21:40;;;;;;;;;;;;;;;13.53;40.15;101589.28;4928135;28;98271;-76
2023/05/04 01:24:08;;;;;;;;;;;;;;;13.50;40.13;101585.19;4924971;28;98435;-75
2023/05/04 01:26:40;;;;;;;;;;;;;;;13.47;39.99;101586.50;4939304;28;98119;-76
2023/05/04 01:29:12;;;;;;;;;;;;;;;13.43;40.21;101590.81;4942111;28;99102;-76
2023/05/04 01:31:41;;;;;;;;;;;;;;;13.39;40.04;101584.28;4959732;28;98297;-76
2023/05/04 01:34:11;;;;;;;;;;;;;;;13.37;40.23;101582.91;4940585;28;98057;-76
2023/05/04 01:36:38;;;;;;;;;;;;;;;13.34;40.21;101586.94;4925666;28;98464;-76
2023/05/04 01:39:08;;;;;;;;;;;;;;;13.30;40.16;101588.53;4926596;28;98347;-76
2023/05/04 01:41:40;;;;;;;;;;;;;;;13.27;40.19;101584.44;4923334;28;99233;-75
2023/05/04 01:44:12;;;;;;;;;;;;;;;13.25;40.25;101589.31;4942347;28;98397;-76
2023/05/04 01:46:39;;;;;;;;;;;;;;;13.22;39.98;101592.50;4938121;28;98220;-76
2023/05/04 01:49:08;;;;;;;;;;;;;;;13.19;40.25;101590.31;4943981;28;97986;-76
2023/05/04 01:51:36;;;;;;;;;;;;;;;13.16;40.25;101592.72;4924333;28;97992;-76
2023/05/04 01:54:02;;;;;;;;;;;;;;;13.13;40.02;101591.34;4941037;28;98020;-76
2023/05/04 01:56:29;;;;;;;;;;;;;;;13.11;40.36;101588.06;4941311;28;99260;-75
2023/05/04 01:58:55;;;;;;;;;;;;;;;13.09;40.03;101584.00;4927704;28;98602;-76
2023/05/04 02:01:23;;;;;;;;;;;;;;;13.07;40.15;101588.84;4941968;28;98305;-75
2023/05/04 02:03:51;;;;;;;;;;;;;;;13.03;40.06;101589.34;4919849;28;98110;-75
2023/05/04 02:06:19;;;;;;;;;;;;;;;13.01;40.11;101588.81;4923950;28;97856;-75
2023/05/04 02:08:47;;;;;;;;;;;;;;;12.97;40.11;101581.47;4926617;28;97892;-76
2023/05/04 02:11:17;;;;;;;;;;;;;;;12.94;40.27;101595.50;4923003;28;98278;-76
2023/05/04 02:13:43;;;;;;;;;;;;;;;12.92;40.11;101592.22;4933810;28;99479;-76
2023/05/04 02:16:10;;;;;;;;;;;;;;;12.89;39.93;101593.56;4939814;28;100166;-76
2023/05/04 02:18:39;;;;;;;;;;;;;;;12.86;40.06;101598.66;4939897;28;98281;-75
2023/05/04 02:21:08;;;;;;;;;;;;;;;12.85;40.02;101592.44;4937584;28;98232;-75
2023/05/04 02:23:34;;;;;;;;;;;;;;;12.83;40.08;101599.16;4922807;28;98017;-76
2023/05/04 02:26:05;;;;;;;;;;;;;;;12.80;40.11;101597.78;4921456;28;98265;-75
2023/05/04 02:28:34;;;;;;;;;;;;;;;12.77;40.20;101595.56;4935654;28;98500;-75
2023/05/04 02:31:03;;;;;;;;;;;;;;;12.75;40.36;101600.44;4933044;28;98395;-76
2023/05/04 02:33:30;;;;;;;;;;;;;;;12.72;40.22;101603.66;4924494;28;98317;-75
2023/05/04 02:35:59;;;;;;;;;;;;;;;12.70;40.13;101598.50;4938452;28;98004;-75
2023/05/04 02:38:28;;;;;;;;;;;;;;;12.68;40.17;101602.53;4951551;28;98704;-75
2023/05/04 02:40:57;;;;;;;;;;;;;;;12.65;40.14;101601.13;4941193;28;98371;-75
2023/05/04 02:43:26;;;;;;;;;;;;;;;12.64;40.17;101606.81;4938234;28;98223;-75
2023/05/04 02:45:54;;;;;;;;;;;;;;;12.62;40.14;101608.97;4936306;28;98060;-76
2023/05/04 02:48:20;;;;;;;;;;;;;;;12.58;39.93;101605.94;4925206;28;98387;-76
2023/05/04 02:50:46;;;;;;;;;;;;;;;12.58;40.11;101610.53;4940430;28;98899;-75
2023/05/04 02:53:15;;;;;;;;;;;;;;;12.55;40.04;101605.63;4925692;28;98117;-74
2023/05/04 02:55:42;;;;;;;;;;;;;;;12.52;40.28;101609.66;4927789;28;98174;-76
2023/05/04 02:58:13;;;;;;;;;;;;;;;12.50;40.27;101611.81;4951098;28;98191;-75
2023/05/04 03:00:42;;;;;;;;;;;;;;;12.48;40.17;101600.41;4943438;28;98471;-75
2023/05/04 03:03:09;;;;;;;;;;;;;;;12.44;40.20;101605.50;4942848;28;98324;-75
2023/05/04 03:05:35;;;;;;;;;;;;;;;12.43;40.26;101603.88;4942633;28;98191;-75
2023/05/04 03:08:02;;;;;;;;;;;;;;;12.41;40.17;101602.47;4940522;28;98088;-76
2023/05/04 03:10:28;;;;;;;;;;;;;;;12.40;40.26;101595.44;4955225;28;98119;-75
2023/05/04 03:12:56;;;;;;;;;;;;;;;12.37;40.14;101598.66;4928765;28;98314;-75
2023/05/04 03:15:24;;;;;;;;;;;;;;;12.34;40.33;101599.97;4939027;28;98271;-76
2023/05/04 03:17:51;;;;;;;;;;;;;;;12.33;40.17;101595.63;4928560;28;98196;-76
2023/05/04 03:20:18;;;;;;;;;;;;;;;12.31;40.20;101597.78;4928322;28;97948;-75
2023/05/04 03:22:47;;;;;;;;;;;;;;;12.28;40.22;101596.38;4954235;28;98253;-75
2023/05/04 03:25:16;;;;;;;;;;;;;;;12.26;40.19;101595.84;4924169;28;98608;-75
2023/05/04 03:27:44;;;;;;;;;;;;;;;12.25;40.22;101596.06;4930099;28;98585;-75
2023/05/04 03:30:12;;;;;;;;;;;;;;;12.23;40.17;101595.50;4934109;28;98364;-75
2023/05/04 03:32:42;;;;;;;;;;;;;;;12.21;40.15;101589.53;4927946;28;98075;-75
2023/05/04 03:35:11;;;;;;;;;;;;;;;12.20;40.21;101593.31;4926919;28;98074;-76
2023/05/04 03:37:39;;;;;;;;;;;;;;;12.19;39.93;101587.09;4929465;28;97979;-75
2023/05/04 03:40:08;;;;;;;;;;;;;;;12.17;40.13;101581.09;4929917;28;98223;-75
2023/05/04 03:42:37;;;;;;;;;;;;;;;12.16;40.38;101584.06;4922031;28;98188;-75
2023/05/04 03:45:07;;;;;;;;;;;;;;;12.16;40.22;101589.47;4944966;28;99441;-75
2023/05/04 03:47:35;;;;;;;;;;;;;;;12.16;40.14;101589.47;4928552;28;98060;-75
2023/05/04 03:50:03;;;;;;;;;;;;;;;12.15;40.13;101587.84;4938434;28;98314;-75
2023/05/04 03:52:30;;;;;;;;;;;;;;;12.12;40.22;101583.75;4939319;28;98391;-75
2023/05/04 03:54:57;;;;;;;;;;;;;;;12.13;40.13;101588.06;4929327;28;98364;-76
2023/05/04 03:57:25;;;;;;;;;;;;;;;12.13;40.17;101585.38;4925117;28;97998;-75
2023/05/04 03:59:52;;;;;;;;;;;;;;;12.13;40.01;101593.47;4929048;28;98601;-75
2023/05/04 04:02:19;;;;;;;;;;;;;;;12.12;40.27;101586.44;4924733;28;98198;-75
2023/05/04 04:04:46;;;;;;;;;;;;;;;12.13;40.07;101596.19;4933012;28;97840;-75
2023/05/04 04:07:12;;;;;;;;;;;;;;;12.13;40.24;101593.47;4924858;28;98309;-75
2023/05/04 04:09:39;;;;;;;;;;;;;;;12.14;40.06;101595.09;4942106;28;99339;-75
2023/05/04 04:12:07;;;;;;;;;;;;;;;12.14;40.20;101592.41;4950951;28;98363;-75
2023/05/04 04:14:34;;;;;;;;;;;;;;;12.15;39.92;101596.75;4928388;28;99559;-75
2023/05/04 04:17:01;;;;;;;;;;;;;;;12.16;40.21;101592.19;4938253;28;98127;-75
2023/05/04 04:19:27;;;;;;;;;;;;;;;12.16;40.11;101584.88;4940709;28;98201;-75
2023/05/04 04:21:54;;;;;;;;;;;;;;;12.17;40.19;101583.00;4919814;28;98152;-75
2023/05/04 04:24:21;;;;;;;;;;;;;;;12.18;40.21;101595.44;4949894;28;98223;-75
2023/05/04 04:26:47;;;;;;;;;;;;;;;12.19;40.08;101592.50;4915806;28;98264;-75
2023/05/04 04:29:14;;;;;;;;;;;;;;;12.20;40.13;101587.91;4916292;28;98843;-75
2023/05/04 04:31:43;;;;;;;;;;;;;;;12.20;39.87;101588.72;4921671;28;98215;-75
2023/05/04 04:34:14;;;;;;;;;;;;;;;12.22;40.09;101602.81;4965947;28;98188;-75
2023/05/04 04:36:42;;;;;;;;;;;;;;;12.24;40.08;101597.97;4951150;27;98092;-75
2023/05/04 04:39:10;;;;;;;;;;;;;;;12.25;40.05;101598.75;4922753;28;98121;-75
2023/05/04 04:41:41;;;;;;;;;;;;;;;12.27;39.92;101593.94;4916254;28;98311;-75
2023/05/04 04:44:07;;;;;;;;;;;;;;;12.27;40.14;101593.94;4917812;28;98230;-75
2023/05/04 04:46:35;;;;;;;;;;;;;;;12.31;40.02;101595.06;4935510;28;98461;-75
2023/05/04 04:49:06;;;;;;;;;;;;;;;12.34;40.00;101599.13;4950476;27;98249;-75
2023/05/04 04:51:33;;;;;;;;;;;;;;;12.37;40.01;101601.34;4921264;28;98918;-75
2023/05/04 04:54:00;;;;;;;;;;;;;;;12.41;39.92;101599.78;4935976;28;98394;-75
2023/05/04 04:56:27;;;;;;;;;;;;;;;12.44;39.81;101591.16;4913089;28;98080;-75
2023/05/04 04:58:53;;;;;;;;;;;;;;;12.50;39.94;101596.38;4919485;28;100023;-75
2023/05/04 05:01:19;;;;;;;;;;;;;;;12.57;39.79;101600.78;4921003;28;98248;-75
2023/05/04 05:03:53;;;;;;;;;;;;;;;12.63;39.78;101600.59;4917258;28;99557;-74
2023/05/04 05:06:20;;;;;;;;;;;;;;;12.71;39.73;101599.31;4929797;28;98098;-75
2023/05/04 05:08:47;;;;;;;;;;;;;;;12.78;39.77;101594.53;4926218;28;98145;-75
2023/05/04 05:11:15;;;;;;;;;;;;;;;12.86;39.70;101595.97;4924833;28;98082;-75
2023/05/04 05:13:42;;;;;;;;;;;;;;;12.95;39.57;101595.22;4929096;28;98064;-75
2023/05/04 05:16:11;;;;;;;;;;;;;;;13.06;39.51;101593.44;4927199;28;98183;-75
2023/05/04 05:18:39;;;;;;;;;;;;;;;13.16;39.70;101598.94;4920019;28;100147;-75
2023/05/04 05:21:08;;;;;;;;;;;;;;;13.29;39.40;101592.34;4925059;28;99532;-75
2023/05/04 05:23:35;;;;;;;;;;;;;;;13.41;39.73;101595.69;4923498;28;98082;-75
2023/05/04 05:26:02;;;;;;;;;;;;;;;13.54;39.28;101594.41;4941238;28;98312;-75
2023/05/04 05:28:29;;;;;;;;;;;;;;;13.66;39.43;101595.03;4929431;28;98072;-75
2023/05/04 05:30:56;;;;;;;;;;;;;;;13.83;39.09;101599.47;4940049;28;98811;-75
2023/05/04 05:33:23;;;;;;;;;;;;;;;13.97;39.06;101593.34;4924086;28;98082;-75
2023/05/04 05:35:50;;;;;;;;;;;;;;;14.13;38.94;101593.41;4925433;28;98284;-75
2023/05/04 05:38:23;;;;;;;;;;;;;;;14.28;38.84;101587.25;4923262;28;98193;-75
2023/05/04 05:40:52;;;;;;;;;;;;;;;14.45;39.09;101585.13;4952226;28;98307;-75
2023/05/04 05:43:20;;;;;;;;;;;;;;;14.65;38.72;101589.84;4926652;28;98095;-75
2023/05/04 05:45:46;;;;;;;;;;;;;;;14.83;38.85;101583.91;4926549;28;98563;-75
2023/05/04 05:48:13;;;;;;;;;;;;;;;15.01;38.76;101584.47;4920058;28;98031;-76
2023/05/04 05:50:42;;;;;;;;;;;;;;;15.21;38.68;101589.94;4923914;28;98649;-75
2023/05/04 05:53:10;;;;;;;;;;;;;;;15.42;38.83;101577.97;4924685;28;98177;-75
2023/05/04 05:55:40;;;;;;;;;;;;;;;15.64;38.57;101577.69;4926241;28;98227;-76
2023/05/04 05:58:07;;;;;;;;;;;;;;;15.84;38.47;101573.34;4943034;28;99623;-76
2023/05/04 06:00:33;;;;;;;;;;;;;;;16.11;38.49;101568.34;4943317;28;98219;-76
2023/05/04 06:03:00;;;;;;;;;;;;;;;16.39;38.26;101576.94;4925463;28;97849;-76
2023/05/04 06:05:30;;;;;;;;;;;;;;;16.68;38.07;101574.31;4927013;28;98351;-76
2023/05/04 06:08:00;;;;;;;;;;;;;;;16.99;37.83;101571.44;4925622;28;99869;-76
2023/05/04 06:10:28;;;;;;;;;;;;;;;17.29;38.03;101573.94;4944215;28;100961;-76
2023/05/04 06:12:55;;;;;;;;;;;;;;;17.60;37.54;101568.97;4935548;28;98256;-76
2023/05/04 06:15:22;;;;;;;;;;;;;;;17.82;37.78;101570.44;4943739;28;98345;-76
2023/05/04 06:17:48;;;;;;;;;;;;;;;18.20;37.73;101570.56;4933070;28;98105;-76
2023/05/04 06:20:16;;;;;;;;;;;;;;;18.52;37.54;101572.59;4940642;28;98359;-76
2023/05/04 06:22:45;;;;;;;;;;;;;;;18.75;37.55;101569.00;4927263;28;97974;-76
2023/05/04 06:25:12;;;;;;;;;;;;;;;19.11;37.44;101569.25;4930306;28;97887;-76
2023/05/04 06:27:40;;;;;;;;;;;;;;;19.67;37.38;101570.22;4943303;28;98229;-76
2023/05/04 06:30:08;;;;;;;;;;;;;;;20.17;36.70;101569.56;4947760;28;98042;-76
2023/05/04 06:32:37;;;;;;;;;;;;;;;20.61;36.72;101565.34;4929700;28;98073;-76
2023/05/04 06:35:07;;;;;;;;;;;;;;;20.92;36.61;101560.78;4945668;28;98231;-76
2023/05/04 06:37:34;;;;;;;;;;;;;;;21.32;36.56;101558.97;4927724;28;98503;-77
2023/05/04 06:40:06;;;;;;;;;;;;;;;21.72;36.40;101563.69;4925855;28;97984;-76
2023/05/04 06:42:33;;;;;;;;;;;;;;;22.19;36.26;101562.09;4946253;28;98109;-74
2023/05/04 06:45:01;;;;;;;;;;;;;;;22.59;36.11;101567.47;4930600;28;98316;-78
2023/05/04 06:47:30;;;;;;;;;;;;;;;22.97;36.04;101567.69;4930089;28;98501;-76
2023/05/04 06:49:58;;;;;;;;;;;;;;;23.35;36.32;101572.50;4923715;28;98145;-77
2023/05/04 06:52:28;;;;;;;;;;;;;;;23.69;36.20;101571.59;4922979;28;97973;-77
2023/05/04 06:54:56;;;;;;;;;;;;;;;24.03;36.22;101567.06;4929388;28;98577;-79
2023/05/04 06:57:25;;;;;;;;;;;;;;;24.40;35.96;101567.34;4929016;28;98202;-77
2023/05/04 06:59:54;;;;;;;;;;;;;;;24.73;35.83;101559.97;4935943;28;98284;-78
2023/05/04 07:02:20;;;;;;;;;;;;;;;25.10;35.89;101562.91;4928297;28;98048;-79
2023/05/04 07:04:47;;;;;;;;;;;;;;;25.42;35.94;101560.47;4928139;28;98057;-79
2023/05/04 07:07:17;;;;;;;;;;;;;;;25.73;35.56;101553.59;4942674;28;98340;-76
2023/05/04 07:09:46;;;;;;;;;;;;;;;26.08;35.72;101567.78;4924631;28;98212;-76
2023/05/04 07:12:13;;;;;;;;;;;;;;;26.51;35.49;101566.38;4958487;28;98197;-78
2023/05/04 07:14:40;;;;;;;;;;;;;;;27.06;35.42;101559.25;4942023;28;98209;-76
2023/05/04 07:17:09;;;;;;;;;;;;;;;27.50;35.15;101556.50;4960407;28;99480;-77
2023/05/04 07:19:37;;;;;;;;;;;;;;;27.88;34.85;101553.91;4973879;27;98222;-80
2023/05/04 07:22:04;;;;;;;;;;;;;;;28.28;34.89;101547.31;4961390;27;98071;-81
2023/05/04 07:24:38;;;;;;;;;;;;;;;28.57;34.92;101543.22;4942051;28;99445;-79
2023/05/04 07:27:05;;;;;;;;;;;;;;;28.99;34.90;101538.91;4946619;28;98460;-81
2023/05/04 07:29:32;;;;;;;;;;;;;;;29.43;34.80;101541.28;4926445;28;98117;-77
2023/05/04 07:32:00;;;;;;;;;;;;;;;29.78;34.26;101538.31;4944372;28;98097;-80
2023/05/04 07:34:28;;;;;;;;;;;;;;;30.25;34.24;101534.28;4972274;28;98200;-77
2023/05/04 07:36:57;;;;;;;;;;;;;;;30.46;34.37;101539.34;4956672;27;98160;-77
2023/05/04 07:39:24;;;;;;;;;;;;;;;30.77;34.42;101532.56;4945277;28;99267;-77
2023/05/04 07:41:51;;;;;;;;;;;;;;;31.11;34.19;101533.34;4927464;28;98403;-77
2023/05/04 07:44:20;;;;;;;;;;;;;;;31.58;34.01;101529.00;4930015;28;98455;-77
2023/05/04 07:46:48;;;;;;;;;;;;;;;31.99;33.96;101545.63;4960818;28;98773;-82
2023/05/04 07:49:17;;;;;;;;;;;;;;;32.45;33.94;101525.59;4927849;28;98628;-83
2023/05/04 07:51:44;;;;;;;;;;;;;;;32.78;33.61;101532.09;4930987;28;99592;-82
2023/05/04 07:54:11;;;;;;;;;;;;;;;33.28;33.82;101523.84;4929909;28;98078;-77
2023/05/04 07:56:39;;;;;;;;;;;;;;;33.76;33.34;101524.25;4927099;28;98306;-82
2023/05/04 07:59:06;;;;;;;;;;;;;;;34.23;33.49;101518.56;4925811;28;98115;-77
2023/05/04 08:01:33;;;;;;;;;;;;;;;34.69;32.89;101527.56;4971829;27;98395;-82
2023/05/04 08:04:01;;;;;;;;;;;;;;;35.02;33.08;101533.00;4945142;28;98167;-78
2023/05/04 08:06:30;;;;;;;;;;;;;;;35.80;32.69;101537.97;4926044;28;98375;-78
2023/05/04 08:08:57;;;;;;;;;;;;;;;36.46;32.61;101538.91;4953643;28;98205;-78
2023/05/04 08:11:24;;;;;;;;;;;;;;;37.15;32.33;101531.16;4925296;28;98809;-82
2023/05/04 08:13:53;;;;;;;;;;;;;;;38.09;31.88;101539.56;4939136;28;98152;-83
2023/05/04 08:16:21;;;;;;;;;;;;;;;39.00;31.48;101526.78;4926269;28;97836;-79
2023/05/04 08:18:49;;;;;;;;;;;;;;;39.95;30.93;101534.00;4922849;28;98340;-84
2023/05/04 08:21:16;;;;;;;;;;;;;;;40.76;30.68;101519.97;4927487;28;98133;-80
2023/05/04 08:23:44;;;;;;;;;;;;;;;41.71;30.52;101517.25;4926759;28;98050;-80
2023/05/04 08:26:12;;;;;;;;;;;;;;;42.38;29.92;101514.00;4927232;28;98646;-81
2023/05/04 08:28:40;;;;;;;;;;;;;;;43.24;30.21;101516.25;4920262;28;98062;-81
2023/05/04 08:31:07;;;;;;;;;;;;;;;44.05;29.83;101508.22;4944166;28;98160;-81
2023/05/04 08:33:35;;;;;;;;;;;;;;;44.82;29.59;101496.47;4943420;28;98461;-81
2023/05/04 08:36:03;;;;;;;;;;;;;;;45.47;29.45;101494.78;4921410;28;98383;-81
2023/05/04 08:38:31;;;;;;;;;;;;;;;45.91;29.42;101494.13;4937582;28;98618;-81
2023/05/04 08:41:05;;;;;;;;;;;;;;;46.24;29.63;101491.06;4938769;28;98252;-82
2023/05/04 08:43:44;;;;;;;;;;;;;;;46.74;29.59;101488.25;4938578;28;98333;-80
2023/05/04 08:46:14;;;;;;;;;;;;;;;47.42;29.07;101477.75;4944574;28;98897;-81
2023/05/04 08:48:45;;;;;;;;;;;;;;;48.09;29.00;101471.94;4937119;28;97913;-81
2023/05/04 08:51:13;;;;;;;;;;;;;;;48.33;29.00;101471.59;4921839;28;98621;-79
2023/05/04 08:53:42;;;;;;;;;;;;;;;48.90;28.92;101468.63;4925769;28;98362;-81
2023/05/04 08:56:11;;;;;;;;;;;;;;;49.10;29.04;101467.66;4942312;28;98088;-81
2023/05/04 08:58:44;;;;;;;;;;;;;;;49.28;29.18;101465.66;4954180;28;97907;-80
2023/05/04 09:01:11;;;;;;;;;;;;;;;49.73;29.10;101460.81;4936136;28;99399;-80
2023/05/04 09:03:38;;;;;;;;;;;;;;;50.10;29.08;101459.81;4936507;28;99630;-80
2023/05/04 09:06:06;;;;;;;;;;;;;;;50.65;28.92;101452.44;4920385;28;98424;-81
2023/05/04 09:08:33;;;;;;;;;;;;;;;51.30;28.66;101457.69;4924869;28;97982;-81
2023/05/04 09:11:03;;;;;;;;;;;;;;;51.45;28.71;101454.47;4921802;28;98461;-83
2023/05/04 09:13:30;;;;;;;;;;;;;;;51.95;28.14;101450.44;4939426;27;100340;-84
2023/05/04 09:15:58;;;;;;;;;;;;;;;52.32;27.82;101454.06;4927449;28;98213;-80
2023/05/04 09:18:36;;;;;;;;;;;;;;;51.54;28.76;101439.78;4926062;28;98035;-84
2023/05/04 09:21:03;;;;;;;;;;;;;;;50.08;30.05;101436.66;4925126;28;98758;-85
2023/05/04 09:23:29;;;;;;;;;;;;;;;49.20;30.56;101438.84;4928906;28;98599;-85
2023/05/04 09:25:57;;;;;;;;;;;;;;;48.65;30.55;101433.09;4928140;28;98130;-84
2023/05/04 09:28:38;;;;;;;;;;;;;;;48.25;30.92;101427.66;4932322;28;98715;-86
2023/05/04 09:31:08;;;;;;;;;;;;;;;48.23;30.67;101422.47;4945945;28;98526;-81
2023/05/04 09:33:35;;;;;;;;;;;;;;;48.45;30.12;101416.13;4955546;28;98202;-85
2023/05/04 09:36:20;;;;;;;;;;;;;;;48.78;29.59;101415.53;4927606;28;98306;-84
2023/05/04 09:38:47;;;;;;;;;;;;;;;49.07;29.12;101411.47;4949484;28;99359;-88
2023/05/04 09:41:17;;;;;;;;;;;;;;;48.93;29.03;101409.59;4931006;28;97861;-90
2023/05/04 09:43:45;;;;;;;;;;;;;;;48.71;29.40;101400.94;4927648;28;98044;-82
2023/05/04 09:46:18;;;;;;;;;;;;;;;48.60;29.24;101402.44;4930166;28;98036;-92
2023/05/04 09:48:52;;;;;;;;;;;;;;;48.37;29.53;101397.84;4943661;28;97621;-81
2023/05/04 09:51:21;;;;;;;;;;;;;;;48.27;29.66;101399.38;4927558;28;98071;-83
2023/05/04 09:53:49;;;;;;;;;;;;;;;48.48;29.08;101394.31;4924665;28;98063;-81
2023/05/04 09:56:55;;;;;;;;;;;;;;;48.49;29.12;101396.66;4946305;28;98332;-91
2023/05/04 09:59:25;;;;;;;;;;;;;;;48.64;28.73;101388.69;4868070;28;99728;-80
2023/05/04 10:01:52;;;;;;;;;;;;;;;48.54;28.91;101386.53;4872197;28;98097;-83
2023/05/04 10:04:21;;;;;;;;;;;;;;;48.44;29.03;101383.13;4888081;28;98018;-82
2023/05/04 10:06:48;;;;;;;;;;;;;;;48.21;29.03;101382.19;4922416;28;98562;-81
2023/05/04 10:09:16;;;;;;;;;;;;;;;48.18;28.93;101371.78;4927601;28;98205;-88
2023/05/04 10:11:42;;;;;;;;;;;;;;;48.09;28.81;101377.69;4926430;28;97989;-78
2023/05/04 10:14:11;;;;;;;;;;;;;;;48.31;28.80;101372.13;4917980;28;98018;-82
2023/05/04 10:16:57;;;;;;;;;;;;;;;48.03;28.83;101371.13;4926762;28;97995;-81
2023/05/04 10:19:47;;;;;;;;;;;;;;;48.01;28.97;101368.78;4952731;28;98595;-84
2023/05/04 10:22:52;;;;;;;;;;;;;;;48.07;28.60;101368.84;4951480;28;97974;-85
2023/05/04 10:25:45;;;;;;;;;;;;;;;47.89;28.70;101356.50;4936306;28;98175;-87
2023/05/04 10:28:35;;;;;;;;;;;;;;;47.70;28.97;101353.25;4943282;28;98262;-85
2023/05/04 10:31:07;;;;;;;;;;;;;;;47.46;28.98;101349.91;4920353;28;98320;-85
2023/05/04 10:33:41;;;;;;;;;;;;;;;47.04;29.02;101339.06;4940162;28;97989;-86
2023/05/04 10:36:08;;;;;;;;;;;;;;;46.73;29.51;101337.66;4926630;28;98003;-79
2023/05/04 10:38:38;;;;;;;;;;;;;;;46.41;29.73;101331.78;4919010;28;97968;-85
2023/05/04 10:41:20;;;;;;;;;;;;;;;46.23;29.25;101332.84;4942538;28;98226;-84
2023/05/04 10:43:52;;;;;;;;;;;;;;;45.89;29.85;101331.53;4941274;28;97925;-87
2023/05/04 10:46:18;;;;;;;;;;;;;;;46.02;29.14;101316.97;4929900;28;98017;-85
2023/05/04 10:48:46;;;;;;;;;;;;;;;45.79;29.28;101313.78;4972356;28;98022;-81
2023/05/04 10:51:19;;;;;;;;;;;;;;;45.72;29.61;101308.50;4920337;28;99806;-79
2023/05/04 10:53:46;;;;;;;;;;;;;;;45.75;29.29;101310.34;4919933;28;98246;-83
2023/05/04 10:56:28;;;;;;;;;;;;;;;45.41;29.64;101308.19;4926315;28;98976;-79
2023/05/04 10:58:55;;;;;;;;;;;;;;;44.87;29.82;101298.91;4925345;28;97935;-80
2023/05/04 11:01:23;;;;;;;;;;;;;;;44.58;29.91;101301.16;4928734;28;98079;-81
2023/05/04 11:03:51;;;;;;;;;;;;;;;44.20;30.06;101301.84;4946239;28;97823;-82
2023/05/04 11:06:22;;;;;;;;;;;;;;;43.71;30.36;101302.25;4929367;28;97896;-86
2023/05/04 11:08:57;;;;;;;;;;;;;;;43.68;29.93;101298.28;4955113;28;98568;-75
2023/05/04 11:11:24;;;;;;;;;;;;;;;43.53;29.94;101291.72;4929712;28;99133;-82
2023/05/04 11:13:52;;;;;;;;;;;;;;;43.26;30.31;101292.53;4937477;28;98083;-72
2023/05/04 11:16:25;;;;;;;;;;;;;;;43.40;29.78;101286.22;4927460;28;98053;-84
2023/05/04 11:18:54;;;;;;;;;;;;;;;43.25;29.81;101285.31;4944311;28;98201;-79
2023/05/04 11:21:24;;;;;;;;;;;;;;;42.85;30.00;101269.28;4927415;28;98124;-78
2023/05/04 11:23:58;;;;;;;;;;;;;;;42.54;30.33;101269.38;4920477;28;98311;-75
2023/05/04 11:26:27;;;;;;;;;;;;;;;42.22;30.63;101259.41;4944687;28;98153;-79
2023/05/04 11:28:54;;;;;;;;;;;;;;;41.95;30.84;101265.78;4943022;28;98498;-81
2023/05/04 11:31:22;;;;;;;;;;;;;;;41.73;31.00;101265.81;4939529;28;98018;-77
2023/05/04 11:33:51;;;;;;;;;;;;;;;41.43;30.72;101256.88;4927795;28;98444;-78
2023/05/04 11:36:19;;;;;;;;;;;;;;;41.18;31.01;101254.97;4930740;28;98230;-80
2023/05/04 11:38:46;;;;;;;;;;;;;;;40.88;31.30;101254.44;4927125;28;98267;-76
2023/05/04 11:41:13;;;;;;;;;;;;;;;40.62;31.27;101256.56;4926331;28;98420;-83
2023/05/04 11:43:41;;;;;;;;;;;;;;;40.50;31.09;101257.34;4920573;28;98198;-84
2023/05/04 11:46:07;;;;;;;;;;;;;;;40.27;31.26;101258.53;4945136;28;98448;-81
2023/05/04 11:48:35;;;;;;;;;;;;;;;39.91;31.30;101258.91;4957422;28;98159;-85
2023/05/04 11:51:04;;;;;;;;;;;;;;;39.60;31.37;101258.63;4928054;28;98592;-86
2023/05/04 11:53:40;;;;;;;;;;;;;;;39.26;31.60;101254.38;4941203;28;97942;-79
2023/05/04 11:56:08;;;;;;;;;;;;;;;39.20;31.29;101254.13;4947102;28;98953;-86
2023/05/04 11:58:40;;;;;;;;;;;;;;;39.11;31.47;101251.19;4931995;28;98292;-78
2023/05/04 12:01:08;;;;;;;;;;;;;;;38.95;31.29;101249.22;4944356;28;99102;-81
2023/05/04 12:03:40;;;;;;;;;;;;;;;38.73;31.47;101253.81;4925975;28;98286;-83
2023/05/04 12:06:07;;;;;;;;;;;;;;;38.51;31.31;101250.75;4938746;28;98027;-81
2023/05/04 12:08:34;;;;;;;;;;;;;;;38.28;31.81;101243.28;4929911;28;99450;-83
2023/05/04 12:11:26;;;;;;;;;;;;;;;38.02;31.54;101242.31;4925983;28;98133;-83
2023/05/04 12:14:08;;;;;;;;;;;;;;;37.68;31.99;101242.69;4941821;28;99676;-82
2023/05/04 12:16:35;;;;;;;;;;;;;;;37.49;31.69;101239.47;4943669;28;98042;-82
2023/05/04 12:19:09;;;;;;;;;;;;;;;37.30;31.90;101238.25;4920649;28;98133;-78
2023/05/04 12:21:36;;;;;;;;;;;;;;;37.06;31.79;101226.31;4943581;28;98347;-84
2023/05/04 12:24:04;;;;;;;;;;;;;;;36.85;32.53;101229.50;4943194;28;98031;-85
2023/05/04 12:26:31;;;;;;;;;;;;;;;36.59;31.86;101232.00;4956906;28;98289;-83
2023/05/04 12:28:57;;;;;;;;;;;;;;;36.42;32.27;101229.47;4929862;28;98279;-83
2023/05/04 12:31:27;;;;;;;;;;;;;;;36.18;32.44;101229.44;4942395;28;98161;-82
2023/05/04 12:33:59;;;;;;;;;;;;;;;35.99;32.38;101222.53;4928610;28;98062;-82
2023/05/04 12:36:28;;;;;;;;;;;;;;;35.77;32.42;101224.84;4942390;28;98228;-82
2023/05/04 12:38:56;;;;;;;;;;;;;;;35.55;32.49;101218.75;4942884;28;98233;-82
2023/05/04 12:41:24;;;;;;;;;;;;;;;35.37;32.50;101218.16;4925952;28;98492;-83
2023/05/04 12:43:52;;;;;;;;;;;;;;;35.16;32.62;101216.44;4941699;27;98021;-81
2023/05/04 12:46:21;;;;;;;;;;;;;;;34.97;32.67;101214.22;4940133;28;98173;-81